createdAt,value
2022-07-28T00:04:40.198Z,4.90
2022-07-28T00:09:44.111Z,5.50
2022-07-28T00:14:47.906Z,5.68
2022-07-28T00:19:51.792Z,5.72
2022-07-28T00:24:55.216Z,5.60
2022-07-28T00:29:58.625Z,5.88
2022-07-28T00:35:02.531Z,5.38
2022-07-28T00:40:08.826Z,5.18
2022-07-28T00:45:13.678Z,5.05
2022-07-28T00:50:17.244Z,5.10
2022-07-28T00:55:21.815Z,5.07
2022-07-28T01:00:25.238Z,5.43
2022-07-28T01:05:44.478Z,5.00
2022-07-28T01:11:02.358Z,5.15
2022-07-28T01:16:07.983Z,5.95
2022-07-28T01:21:15.487Z,5.82
2022-07-28T01:26:38.604Z,5.68
2022-07-28T01:31:46.587Z,5.45
2022-07-28T01:36:57.422Z,5.03
2022-07-28T01:42:05.238Z,5.38
2022-07-28T01:47:10.596Z,5.28
2022-07-28T01:52:16.075Z,5.07
2022-07-28T01:57:21.014Z,5.32
2022-07-28T02:02:27.278Z,5.60
2022-07-28T02:07:32.756Z,5.57
2022-07-28T02:12:38.348Z,5.85
2022-07-28T02:18:02.978Z,5.20
2022-07-28T02:23:08.909Z,5.70
2022-07-28T02:28:14.086Z,6.20
2022-07-28T02:33:29.617Z,5.07
2022-07-28T02:38:51.965Z,4.90
2022-07-28T02:44:05.543Z,5.68
2022-07-28T02:49:23.722Z,5.60
2022-07-28T02:54:30.430Z,5.45
2022-07-28T02:59:36.405Z,5.90
2022-07-28T03:04:41.275Z,6.43
2022-07-28T03:09:47.302Z,5.65
2022-07-28T03:14:55.146Z,6.13
2022-07-28T03:20:01.220Z,5.93
2022-07-28T03:25:11.037Z,5.70
2022-07-28T03:30:23.268Z,5.45
2022-07-28T03:35:35.362Z,5.55
2022-07-28T03:40:39.732Z,6.13
2022-07-28T03:45:46.796Z,5.78
2022-07-28T03:50:50.540Z,5.10
2022-07-28T03:55:54.460Z,6.40
2022-07-28T04:00:59.057Z,6.18
2022-07-28T04:06:02.674Z,5.93
2022-07-28T04:11:06.240Z,6.63
2022-07-28T04:16:09.769Z,6.40
2022-07-28T04:21:14.481Z,6.53
2022-07-28T04:26:18.432Z,5.50
2022-07-28T04:31:22.236Z,6.07
2022-07-28T04:36:34.367Z,5.35
2022-07-28T04:41:38.339Z,5.13
2022-07-28T04:46:41.982Z,4.55
2022-07-28T04:51:45.865Z,5.32
2022-07-28T04:56:50.374Z,5.18
2022-07-28T05:01:54.017Z,6.00
2022-07-28T05:06:58.045Z,6.85
2022-07-28T05:12:01.691Z,4.50
2022-07-28T05:17:05.300Z,3.83
2022-07-28T05:22:09.067Z,3.65
2022-07-28T05:27:12.455Z,4.13
2022-07-28T05:32:17.551Z,4.03
2022-07-28T05:37:21.394Z,3.97
2022-07-28T05:42:24.927Z,3.75
2022-07-28T05:47:28.468Z,2.90
2022-07-28T05:52:32.271Z,2.63
2022-07-28T05:57:36.819Z,3.58
2022-07-28T06:02:41.263Z,3.55
2022-07-28T06:07:45.858Z,3.53
2022-07-28T06:12:55.733Z,4.00
2022-07-28T06:18:03.295Z,3.78
2022-07-28T06:23:06.956Z,3.60
2022-07-28T06:28:10.368Z,3.28
2022-07-28T06:33:17.272Z,4.15
2022-07-28T06:38:21.492Z,3.72
2022-07-28T06:43:25.162Z,4.38
2022-07-28T06:48:29.465Z,3.80
2022-07-28T06:53:34.570Z,4.10
2022-07-28T06:58:38.620Z,4.75
2022-07-28T07:03:43.473Z,3.83
2022-07-28T07:08:49.099Z,3.92
2022-07-28T07:13:55.139Z,4.25
2022-07-28T07:18:58.622Z,3.90
2022-07-28T07:24:02.096Z,4.00
2022-07-28T07:29:06.748Z,3.65
2022-07-28T07:34:10.159Z,3.65
2022-07-28T07:39:13.687Z,2.83
2022-07-28T07:44:20.124Z,2.75
2022-07-28T07:49:23.706Z,2.97
2022-07-28T07:54:29.708Z,3.60
2022-07-28T07:59:32.981Z,3.50
2022-07-28T08:04:37.246Z,2.90
2022-07-28T08:09:41.719Z,2.90
2022-07-28T08:14:47.747Z,2.60
2022-07-28T08:19:51.514Z,3.92
2022-07-28T08:24:56.269Z,2.80
2022-07-28T08:29:59.760Z,3.38
2022-07-28T08:35:30.349Z,2.60
2022-07-28T08:40:30.163Z,2.88
2022-07-28T08:45:37.020Z,3.00
2022-07-28T08:50:42.927Z,2.60
2022-07-28T08:55:47.904Z,2.85
2022-07-28T09:00:51.271Z,2.85
2022-07-28T09:05:55.715Z,2.58
2022-07-28T09:10:59.598Z,2.58
2022-07-28T09:16:03.309Z,3.30
2022-07-28T09:21:07.203Z,2.67
2022-07-28T09:26:12.745Z,3.53
2022-07-28T09:31:17.590Z,2.92
2022-07-28T09:36:21.715Z,3.08
2022-07-28T09:41:28.985Z,2.80
2022-07-28T09:46:32.824Z,2.60
2022-07-28T09:51:37.549Z,2.42
2022-07-28T09:56:43.454Z,2.67
2022-07-28T10:01:54.392Z,3.28
2022-07-28T10:12:35.404Z,2.70
2022-07-28T10:17:39.008Z,2.70
2022-07-28T10:22:43.722Z,3.67
2022-07-28T10:27:49.439Z,2.97
2022-07-28T10:32:54.805Z,5.05
2022-07-28T10:38:05.687Z,3.42
2022-07-28T10:43:09.378Z,3.33
2022-07-28T10:48:13.685Z,2.80
2022-07-28T10:53:41.076Z,3.28
2022-07-28T10:59:04.537Z,2.95
2022-07-28T11:04:08.883Z,2.40
2022-07-28T11:09:18.215Z,2.78
2022-07-28T11:14:24.868Z,3.08
2022-07-28T11:20:16.239Z,3.33
2022-07-28T11:25:08.025Z,3.00
2022-07-28T11:30:27.822Z,3.17
2022-07-28T11:35:52.019Z,3.28
2022-07-28T11:40:57.652Z,3.47
2022-07-28T11:46:09.869Z,3.65
2022-07-28T11:51:19.040Z,3.38
2022-07-28T11:56:23.725Z,3.60
2022-07-28T12:01:31.806Z,3.00
2022-07-28T12:06:37.029Z,2.70
2022-07-28T12:11:41.902Z,2.88
2022-07-28T12:16:49.804Z,3.15
2022-07-28T12:21:56.334Z,2.67
2022-07-28T12:27:00.179Z,3.10
2022-07-28T12:32:05.217Z,2.58
2022-07-28T12:37:10.003Z,3.50
2022-07-28T12:42:14.906Z,2.50
2022-07-28T12:47:26.652Z,2.92
2022-07-28T12:52:30.149Z,2.40
2022-07-28T12:57:49.390Z,2.22
2022-07-28T13:02:56.819Z,2.50
2022-07-28T13:08:02.456Z,2.63
2022-07-28T13:13:07.725Z,2.90
2022-07-28T13:18:11.909Z,2.50
2022-07-28T13:23:16.136Z,2.58
2022-07-28T13:28:27.266Z,2.50
2022-07-28T13:33:30.743Z,2.00
2022-07-28T13:38:34.375Z,2.20
2022-07-28T13:43:37.944Z,2.38
2022-07-28T13:48:58.127Z,2.05
2022-07-28T13:54:03.711Z,2.53
2022-07-28T13:59:08.871Z,2.67
2022-07-28T14:04:17.153Z,2.33
2022-07-28T14:09:21.632Z,2.35
2022-07-28T14:14:25.517Z,2.30
2022-07-28T14:19:38.230Z,2.47
2022-07-28T14:24:43.137Z,2.10
2022-07-28T14:29:46.777Z,1.92
2022-07-28T14:34:53.487Z,2.20
2022-07-28T14:40:01.898Z,2.42
2022-07-28T14:45:07.065Z,1.77
2022-07-28T14:50:10.978Z,1.88
2022-07-28T14:55:14.863Z,2.13
2022-07-28T15:00:18.560Z,2.22
2022-07-28T15:05:23.014Z,2.20
2022-07-28T15:10:26.671Z,2.42
2022-07-28T15:15:30.075Z,2.40
2022-07-28T15:20:33.291Z,1.98
2022-07-28T15:25:38.213Z,2.50
2022-07-28T15:30:49.253Z,2.40
2022-07-28T15:35:58.133Z,2.50
2022-07-28T15:41:03.585Z,2.42
2022-07-28T15:46:08.869Z,2.55
2022-07-28T15:51:14.117Z,3.05
2022-07-28T15:56:20.640Z,3.00
2022-07-28T16:01:25.654Z,2.63
2022-07-28T16:06:30.469Z,2.83
2022-07-28T16:11:33.945Z,2.85
2022-07-28T16:16:37.928Z,2.45
2022-07-28T16:21:42.289Z,2.47
2022-07-28T16:26:51.005Z,2.83
2022-07-28T16:31:57.100Z,2.60
2022-07-28T16:37:06.420Z,2.70
2022-07-28T16:42:10.039Z,3.45
2022-07-28T16:47:17.357Z,2.97
2022-07-28T16:52:21.891Z,2.97
2022-07-28T16:57:26.089Z,2.50
2022-07-28T17:02:29.845Z,2.90
2022-07-28T17:07:33.686Z,3.40
2022-07-28T17:12:40.329Z,2.78
2022-07-28T17:17:46.379Z,2.90
2022-07-28T17:22:49.870Z,2.85
2022-07-28T17:27:53.451Z,3.55
2022-07-28T17:33:08.713Z,3.10
2022-07-28T17:38:12.400Z,2.97
2022-07-28T17:43:15.647Z,3.42
2022-07-28T17:48:19.096Z,3.45
2022-07-28T17:53:23.368Z,3.80
2022-07-28T17:58:29.642Z,3.25
2022-07-28T18:03:57.842Z,3.40
2022-07-28T18:08:57.472Z,2.80
2022-07-28T18:14:05.653Z,3.40
2022-07-28T18:19:09.284Z,4.50
2022-07-28T18:24:13.752Z,3.45
2022-07-28T18:29:17.457Z,3.50
2022-07-28T18:34:23.393Z,3.20
2022-07-28T18:39:28.775Z,3.53
2022-07-28T18:44:32.807Z,3.90
2022-07-28T18:49:37.766Z,3.33
2022-07-28T18:54:41.589Z,3.30
2022-07-28T18:59:50.169Z,3.97
2022-07-28T19:06:24.967Z,3.83
2022-07-28T19:11:29.956Z,4.07
2022-07-28T19:16:33.482Z,3.67
2022-07-28T19:21:36.960Z,4.60
2022-07-28T19:26:47.752Z,4.20
2022-07-28T19:31:51.224Z,4.13
2022-07-28T19:36:54.545Z,3.45
2022-07-28T19:41:58.031Z,3.92
2022-07-28T19:47:01.400Z,4.45
2022-07-28T19:52:06.576Z,4.13
2022-07-28T19:57:12.385Z,4.20
2022-07-28T20:02:18.225Z,4.25
2022-07-28T20:07:21.800Z,4.20
2022-07-28T20:12:27.001Z,4.03
2022-07-28T20:17:39.077Z,3.58
2022-07-28T20:22:43.518Z,4.35
2022-07-28T20:27:47.116Z,4.55
2022-07-28T20:32:50.927Z,4.75
2022-07-28T20:37:54.275Z,4.90
2022-07-28T20:42:57.943Z,5.22
2022-07-28T20:48:01.357Z,5.55
2022-07-28T20:53:09.967Z,5.85
2022-07-28T20:58:13.695Z,5.43
2022-07-28T21:03:17.892Z,6.45
2022-07-28T21:08:21.370Z,6.20
2022-07-28T21:13:26.343Z,6.20
2022-07-28T21:18:30.972Z,5.53
2022-07-28T21:23:34.683Z,5.63
2022-07-28T21:28:39.259Z,5.07
2022-07-28T21:33:42.761Z,5.57
2022-07-28T21:38:46.483Z,5.13
2022-07-28T21:43:50.161Z,5.13
2022-07-28T21:48:55.275Z,5.53
2022-07-28T21:53:59.032Z,5.43
2022-07-28T21:59:02.809Z,5.45
2022-07-28T22:04:06.577Z,5.60
2022-07-28T22:09:10.199Z,6.20
2022-07-28T22:14:14.152Z,5.78
2022-07-28T22:19:17.791Z,4.78
2022-07-28T22:24:21.536Z,4.82
2022-07-28T22:29:25.242Z,4.57
2022-07-28T22:34:28.802Z,4.10
2022-07-28T22:39:33.263Z,4.57
2022-07-28T22:44:36.741Z,4.88
2022-07-28T22:49:40.328Z,4.35
2022-07-28T23:05:10.927Z,4.07
2022-07-28T23:10:14.756Z,4.07
2022-07-28T23:15:20.522Z,4.68
2022-07-28T23:20:28.071Z,4.07
2022-07-28T23:25:32.069Z,3.60
2022-07-28T23:30:35.675Z,3.40
2022-07-28T23:35:40.578Z,2.97
2022-07-28T23:40:44.249Z,3.45
2022-07-28T23:45:47.798Z,3.45
2022-07-28T23:50:51.671Z,4.20
2022-07-28T23:55:55.293Z,3.80
